Time;durP1;ratioP1;P1;durP2;ratioP2;P2;SDS_P1;SDS_P2;PMS_P1;PMS_P2;Temp;Humidity;BMP_temperature;BMP_pressure;BME280_temperature;BME280_humidity;BME280_pressure;Samples;Min_cycle;Max_cycle;Signal;HPM_P1;HPM_P2
2020/12/05 00:01:23;;;;;;;27.02;16.27;;;5.40;83.20;;;;;;5110467;28;20011;-90
2020/12/05 00:03:49;;;;;;;35.45;18.58;;;5.40;83.10;;;;;;5111334;28;20028;-89
2020/12/05 00:06:20;;;;;;;29.08;17.10;;;5.40;83.10;;;;;;5113479;27;20551;-90
2020/12/05 00:08:46;;;;;;;25.48;16.58;;;5.40;83.00;;;;;;5090049;28;20054;-92
2020/12/05 00:11:12;;;;;;;26.42;16.33;;;5.50;82.70;;;;;;5087038;28;20074;-91
2020/12/05 00:13:37;;;;;;;27.42;17.45;;;5.50;82.80;;;;;;5087607;28;20039;-91
2020/12/05 00:16:03;;;;;;;25.88;16.58;;;5.50;82.60;;;;;;5094403;28;20031;-91
2020/12/05 00:18:29;;;;;;;26.30;16.88;;;5.40;82.60;;;;;;5091158;28;20526;-90
2020/12/05 00:20:54;;;;;;;27.95;17.02;;;5.40;82.60;;;;;;5089107;28;20036;-90
2020/12/05 00:23:20;;;;;;;26.67;15.98;;;5.40;82.60;;;;;;5102250;28;20027;-92
2020/12/05 00:25:45;;;;;;;28.67;17.05;;;5.40;82.80;;;;;;5084116;28;20027;-91
2020/12/05 00:28:11;;;;;;;28.95;17.13;;;5.30;82.90;;;;;;5103041;28;20465;-90
2020/12/05 00:30:37;;;;;;;25.33;17.05;;;5.30;83.10;;;;;;5099646;28;20136;-90
2020/12/05 00:33:03;;;;;;;27.70;17.13;;;5.20;83.80;;;;;;5102834;28;20065;-90
2020/12/05 00:35:29;;;;;;;27.42;17.08;;;5.20;83.50;;;;;;5095909;28;20030;-91
2020/12/05 00:37:55;;;;;;;26.17;16.35;;;5.10;83.70;;;;;;5081909;28;20028;-91
2020/12/05 00:40:22;;;;;;;30.05;16.63;;;5.10;83.80;;;;;;5087659;28;20085;-92
2020/12/05 00:42:48;;;;;;;24.58;16.15;;;5.10;84.00;;;;;;5085931;28;20023;-90
2020/12/05 00:45:15;;;;;;;29.00;17.65;;;5.00;84.30;;;;;;5109891;28;20102;-91
2020/12/05 00:47:41;;;;;;;30.60;18.02;;;5.00;84.40;;;;;;5107565;28;20043;-90
2020/12/05 00:50:07;;;;;;;27.60;17.10;;;5.00;84.60;;;;;;5091737;28;20493;-91
2020/12/05 00:52:33;;;;;;;28.17;17.63;;;5.00;84.80;;;;;;5091494;28;20032;-89
2020/12/05 00:54:58;;;;;;;28.48;17.92;;;5.00;84.90;;;;;;5108702;28;20016;-90
2020/12/05 00:57:24;;;;;;;30.55;17.77;;;4.90;84.90;;;;;;5110980;28;20036;-93
2020/12/05 00:59:50;;;;;;;26.08;16.17;;;4.90;85.00;;;;;;5092316;28;20016;-90
2020/12/05 01:02:15;;;;;;;27.63;17.20;;;4.90;85.20;;;;;;5111529;28;20110;-90
2020/12/05 01:04:41;;;;;;;30.13;18.15;;;5.00;85.10;;;;;;5092304;28;20072;-90
2020/12/05 01:07:07;;;;;;;26.30;16.13;;;5.00;85.00;;;;;;5082217;28;20027;-91
2020/12/05 01:09:33;;;;;;;27.48;16.80;;;5.00;85.00;;;;;;5109786;28;20091;-90
2020/12/05 01:11:58;;;;;;;30.13;17.40;;;5.00;85.00;;;;;;5098900;28;20402;-93
2020/12/05 01:14:24;;;;;;;29.10;17.65;;;5.00;85.00;;;;;;5093896;28;20045;-90
2020/12/05 01:16:50;;;;;;;32.38;16.42;;;4.90;85.10;;;;;;5088405;28;20031;-91
2020/12/05 01:19:15;;;;;;;27.92;17.92;;;4.90;85.10;;;;;;5103818;28;20020;-90
2020/12/05 01:21:45;;;;;;;26.40;16.65;;;4.90;85.10;;;;;;5100486;28;20023;-90
2020/12/05 01:24:11;;;;;;;28.10;17.33;;;4.90;85.20;;;;;;5122299;27;20024;-90
2020/12/05 01:26:37;;;;;;;29.00;17.85;;;4.90;85.10;;;;;;5091221;28;20019;-91
2020/12/05 01:29:02;;;;;;;23.85;16.40;;;4.90;85.30;;;;;;5109475;28;20024;-91
2020/12/05 01:31:28;;;;;;;30.65;17.00;;;4.90;85.30;;;;;;5079868;28;20020;-88
2020/12/05 01:33:53;;;;;;;28.35;17.45;;;4.90;85.40;;;;;;5112206;28;20456;-92
2020/12/05 01:36:19;;;;;;;26.15;16.17;;;4.90;85.50;;;;;;5093778;28;20766;-92
2020/12/05 01:38:45;;;;;;;28.25;17.30;;;4.90;85.60;;;;;;5092879;28;20362;-91
2020/12/05 01:41:10;;;;;;;25.20;16.98;;;4.90;85.70;;;;;;5111720;28;20116;-90
2020/12/05 01:43:40;;;;;;;27.00;17.05;;;4.90;85.70;;;;;;5093666;28;20350;-92
2020/12/05 01:46:05;;;;;;;26.75;16.10;;;4.90;85.70;;;;;;5111020;28;20085;-90
2020/12/05 01:48:32;;;;;;;25.60;16.15;;;4.90;85.70;;;;;;5110145;28;20461;-91
2020/12/05 01:50:58;;;;;;;27.00;16.88;;;4.90;85.70;;;;;;5087789;28;20040;-91
2020/12/05 01:53:24;;;;;;;28.33;17.10;;;5.00;85.70;;;;;;5079398;28;20099;-90
2020/12/05 01:55:50;;;;;;;24.60;16.05;;;4.90;85.70;;;;;;5078509;28;20012;-90
2020/12/05 01:58:17;;;;;;;21.98;15.73;;;4.90;85.90;;;;;;5075698;28;20035;-91
2020/12/05 02:00:44;;;;;;;27.80;16.25;;;5.00;85.80;;;;;;5066111;28;20020;-89
2020/12/05 02:03:12;;;;;;;26.38;17.25;;;4.90;85.80;;;;;;5069936;28;20059;-89
2020/12/05 02:05:43;;;;;;;28.42;16.70;;;4.90;85.90;;;;;;5094755;28;20020;-92
2020/12/05 02:08:13;;;;;;;24.58;16.38;;;4.90;85.80;;;;;;5073132;28;20385;-90
2020/12/05 02:10:43;;;;;;;23.55;16.17;;;5.00;85.90;;;;;;5075315;28;20020;-90
2020/12/05 02:13:20;;;;;;;27.80;16.97;;;5.00;85.90;;;;;;5077751;28;20032;-91
2020/12/05 02:15:48;;;;;;;24.33;15.55;;;5.00;85.90;;;;;;5078384;28;20025;-90
2020/12/05 02:18:15;;;;;;;26.98;16.50;;;5.00;85.90;;;;;;5080289;28;20024;-91
2020/12/05 02:20:41;;;;;;;22.95;14.90;;;4.90;85.90;;;;;;5064587;28;20174;-91
2020/12/05 02:23:14;;;;;;;26.00;16.17;;;4.90;85.90;;;;;;5068130;28;20059;-91
2020/12/05 02:25:42;;;;;;;26.55;16.38;;;4.90;86.10;;;;;;5073805;28;20065;-90
2020/12/05 02:28:08;;;;;;;22.92;15.07;;;4.90;86.20;;;;;;5071237;28;20028;-91
2020/12/05 02:30:34;;;;;;;22.48;14.63;;;5.00;86.00;;;;;;5071557;28;20021;-90
2020/12/05 02:33:01;;;;;;;23.27;14.93;;;5.00;85.90;;;;;;5072641;28;20500;-91
2020/12/05 02:35:27;;;;;;;22.23;13.88;;;5.10;86.00;;;;;;5070237;28;20027;-91
2020/12/05 02:38:15;;;;;;;22.85;14.23;;;5.20;85.70;;;;;;5071702;28;20111;-90
2020/12/05 02:40:41;;;;;;;21.58;13.43;;;5.20;85.40;;;;;;5072907;28;20031;-93
2020/12/05 02:43:07;;;;;;;21.27;14.75;;;5.20;85.30;;;;;;5076390;28;20032;-91
2020/12/05 02:45:34;;;;;;;23.63;14.88;;;5.30;85.20;;;;;;5075556;28;20024;-92
2020/12/05 02:48:01;;;;;;;23.88;15.63;;;5.30;85.00;;;;;;5077846;28;20107;-90
2020/12/05 02:50:27;;;;;;;23.40;15.32;;;5.40;84.90;;;;;;5078914;28;20037;-93
2020/12/05 02:52:53;;;;;;;22.13;15.00;;;5.40;84.70;;;;;;5067433;28;20037;-92
2020/12/05 02:55:19;;;;;;;22.08;14.10;;;5.40;84.80;;;;;;5062189;28;20040;-91
2020/12/05 02:57:45;;;;;;;22.40;14.57;;;5.30;84.70;;;;;;5076676;28;20041;-91
2020/12/05 03:00:10;;;;;;;26.48;15.88;;;5.30;84.80;;;;;;5077455;28;20074;-92
2020/12/05 03:02:36;;;;;;;27.08;16.55;;;5.30;84.90;;;;;;5072959;28;20053;-92
2020/12/05 03:05:02;;;;;;;25.00;15.23;;;5.30;84.80;;;;;;5075170;28;20028;-91
2020/12/05 03:07:28;;;;;;;24.83;15.40;;;5.30;84.70;;;;;;5078836;28;20029;-90
2020/12/05 03:09:53;;;;;;;24.50;14.90;;;5.30;84.80;;;;;;5075646;28;20031;-91
2020/12/05 03:12:19;;;;;;;23.65;15.55;;;5.30;84.70;;;;;;5076114;28;20122;-91
2020/12/05 03:14:45;;;;;;;23.05;15.02;;;5.30;84.80;;;;;;5075357;28;20024;-91
2020/12/05 03:17:10;;;;;;;21.65;14.70;;;5.30;84.80;;;;;;5074249;28;20016;-90
2020/12/05 03:19:36;;;;;;;25.77;15.00;;;5.40;84.70;;;;;;5060676;28;20021;-90
2020/12/05 03:22:02;;;;;;;20.88;15.50;;;5.30;84.70;;;;;;5059057;28;20390;-90
2020/12/05 03:24:27;;;;;;;21.30;14.30;;;5.30;84.90;;;;;;5063363;28;20091;-91
2020/12/05 03:26:53;;;;;;;21.30;14.45;;;5.40;84.80;;;;;;5063053;28;20021;-91
2020/12/05 03:29:19;;;;;;;23.35;14.55;;;5.40;84.70;;;;;;5063241;28;20029;-90
2020/12/05 03:34:14;;;;;;;25.20;15.50;;;5.40;84.60;;;;;;5063031;28;20159;-91
2020/12/05 03:36:40;;;;;;;20.60;14.07;;;5.40;84.50;;;;;;5066419;28;20073;-92
2020/12/05 03:39:06;;;;;;;22.58;14.63;;;5.40;84.60;;;;;;5059507;28;20025;-90
2020/12/05 03:41:31;;;;;;;22.40;14.35;;;5.40;84.60;;;;;;5063211;28;20047;-91
2020/12/05 03:43:57;;;;;;;21.15;15.35;;;5.40;84.60;;;;;;5074475;28;20078;-92
2020/12/05 03:46:23;;;;;;;20.10;14.68;;;5.30;84.70;;;;;;5056535;28;20020;-90
2020/12/05 03:48:49;;;;;;;21.05;14.57;;;5.30;84.70;;;;;;5062280;28;20044;-91
2020/12/05 03:51:14;;;;;;;23.05;15.38;;;5.30;84.80;;;;;;5070671;28;20106;-91
2020/12/05 03:53:40;;;;;;;24.20;15.90;;;5.30;85.00;;;;;;5085154;28;20497;-91
2020/12/05 03:56:09;;;;;;;20.73;14.27;;;5.30;85.00;;;;;;5078668;28;20020;-92
2020/12/05 03:58:34;;;;;;;22.48;14.82;;;5.30;84.80;;;;;;5083074;28;20032;-93
2020/12/05 04:01:00;;;;;;;21.88;14.48;;;5.40;84.90;;;;;;5076796;28;20043;-92
2020/12/05 04:03:26;;;;;;;21.45;14.65;;;5.30;85.00;;;;;;5080013;28;20028;-92
2020/12/05 04:05:51;;;;;;;21.38;14.55;;;5.40;84.80;;;;;;5083787;28;20359;-92
2020/12/05 04:08:17;;;;;;;22.42;14.40;;;5.50;84.80;;;;;;5086459;28;20042;-91
2020/12/05 04:10:43;;;;;;;21.60;15.43;;;5.40;84.70;;;;;;5083028;28;20078;-92
2020/12/05 04:13:08;;;;;;;23.45;14.75;;;5.40;84.80;;;;;;5084285;28;20043;-92
2020/12/05 04:15:34;;;;;;;25.65;16.20;;;5.40;85.10;;;;;;5088251;28;20501;-91
2020/12/05 04:18:00;;;;;;;23.88;15.20;;;5.40;85.20;;;;;;5084695;28;20545;-91
2020/12/05 04:20:25;;;;;;;23.23;14.75;;;5.40;85.00;;;;;;5084762;28;20020;-91
2020/12/05 04:22:54;;;;;;;21.13;14.77;;;5.40;85.10;;;;;;5083946;28;20076;-91
2020/12/05 04:25:22;;;;;;;24.55;16.25;;;5.40;85.20;;;;;;5081138;28;20038;-90
2020/12/05 04:27:47;;;;;;;25.67;16.35;;;5.50;85.10;;;;;;5082679;28;20028;-92
2020/12/05 04:30:13;;;;;;;25.30;16.05;;;5.50;85.20;;;;;;5119499;27;20031;-89
2020/12/05 04:32:39;;;;;;;21.80;14.45;;;5.40;85.20;;;;;;5080932;28;20043;-90
2020/12/05 04:35:04;;;;;;;23.77;15.13;;;5.50;85.20;;;;;;5083725;28;20114;-91
2020/12/05 04:37:30;;;;;;;26.05;16.60;;;5.50;85.20;;;;;;5086670;28;20028;-93
2020/12/05 04:39:55;;;;;;;27.23;17.25;;;5.50;85.30;;;;;;5089230;28;20043;-91
2020/12/05 04:42:21;;;;;;;27.85;17.15;;;5.50;85.20;;;;;;5091734;28;20030;-90
2020/12/05 04:44:47;;;;;;;26.08;17.17;;;5.50;85.30;;;;;;5085140;28;20034;-90
2020/12/05 04:47:16;;;;;;;24.90;15.82;;;5.40;85.40;;;;;;5086683;28;20486;-91
2020/12/05 04:49:43;;;;;;;26.38;16.60;;;5.40;85.50;;;;;;5083086;28;20027;-91
2020/12/05 04:52:20;;;;;;;26.25;17.92;;;5.40;85.60;;;;;;5106523;28;20048;-92
2020/12/05 04:54:51;;;;;;;25.02;16.00;;;5.40;85.60;;;;;;5106955;28;20034;-90
2020/12/05 04:57:21;;;;;;;29.08;16.90;;;5.30;85.80;;;;;;5118228;27;20024;-92
2020/12/05 04:59:48;;;;;;;27.48;17.42;;;5.40;85.90;;;;;;5106154;28;20043;-91
2020/12/05 05:02:18;;;;;;;28.23;17.60;;;5.40;86.00;;;;;;5090808;28;20038;-91
2020/12/05 05:04:44;;;;;;;26.42;16.50;;;5.30;85.90;;;;;;5093666;28;20080;-91
2020/12/05 05:07:10;;;;;;;26.15;17.92;;;5.30;86.00;;;;;;5102174;28;20016;-91
2020/12/05 05:09:49;;;;;;;28.52;18.08;;;5.30;86.10;;;;;;5107420;28;20024;-92
2020/12/05 05:12:31;;;;;;;28.40;17.98;;;5.30;86.10;;;;;;5111711;28;20504;-91
2020/12/05 05:14:56;;;;;;;29.60;17.80;;;5.30;86.40;;;;;;5107282;28;20024;-91
2020/12/05 05:17:22;;;;;;;27.00;17.98;;;5.30;86.60;;;;;;5087046;28;20039;-94
2020/12/05 05:19:47;;;;;;;28.38;18.15;;;5.20;86.70;;;;;;5085707;28;20113;-91
2020/12/05 05:22:20;;;;;;;25.98;18.13;;;5.20;86.70;;;;;;5090945;28;20059;-90
2020/12/05 05:25:03;;;;;;;28.75;17.95;;;5.20;87.00;;;;;;5107337;28;20095;-91
2020/12/05 05:27:29;;;;;;;28.73;18.08;;;5.10;86.90;;;;;;5107349;28;20107;-91
2020/12/05 05:30:05;;;;;;;26.30;17.40;;;5.10;87.00;;;;;;5103299;28;20549;-91
2020/12/05 05:32:31;;;;;;;27.05;18.13;;;5.10;87.00;;;;;;5107630;28;20055;-90
2020/12/05 05:35:12;;;;;;;29.48;18.83;;;5.10;87.10;;;;;;5110679;28;20435;-91
2020/12/05 05:37:40;;;;;;;28.95;18.98;;;5.10;87.10;;;;;;5087133;28;20039;-90
2020/12/05 05:40:09;;;;;;;25.95;17.70;;;5.00;87.10;;;;;;5103201;28;20024;-91
2020/12/05 05:42:36;;;;;;;29.20;17.98;;;5.00;87.20;;;;;;5106882;28;20026;-92
2020/12/05 05:45:17;;;;;;;27.27;17.98;;;4.90;87.30;;;;;;5102376;28;20081;-91
2020/12/05 05:47:44;;;;;;;28.75;17.80;;;5.00;87.30;;;;;;5100428;28;20055;-90
2020/12/05 05:50:27;;;;;;;28.98;18.02;;;5.00;87.20;;;;;;5101955;28;20024;-91
2020/12/05 05:52:59;;;;;;;26.55;18.23;;;5.00;87.20;;;;;;5109824;28;20030;-92
2020/12/05 05:55:47;;;;;;;26.45;17.50;;;5.00;87.40;;;;;;5105675;28;20028;-91
2020/12/05 05:58:15;;;;;;;27.20;18.33;;;5.00;87.40;;;;;;5108533;28;20024;-90
2020/12/05 06:00:43;;;;;;;23.33;17.35;;;5.10;87.30;;;;;;5085312;28;20020;-90
2020/12/05 06:03:25;;;;;;;29.83;18.02;;;5.10;87.10;;;;;;5109396;28;20493;-91
2020/12/05 06:05:57;;;;;;;28.70;17.38;;;5.10;87.00;;;;;;5086779;28;20019;-92
2020/12/05 06:08:29;;;;;;;27.67;18.75;;;5.10;87.00;;;;;;5104030;28;20035;-90
2020/12/05 06:11:10;;;;;;;32.78;19.38;;;5.10;87.00;;;;;;5100328;28;20016;-92
2020/12/05 06:13:36;;;;;;;27.60;17.90;;;5.20;86.90;;;;;;5101019;28;20036;-91
2020/12/05 06:16:03;;;;;;;26.77;17.63;;;5.30;86.60;;;;;;5106882;28;20381;-91
2020/12/05 06:18:29;;;;;;;25.05;16.83;;;5.30;86.30;;;;;;5107191;27;20008;-91
2020/12/05 06:20:55;;;;;;;30.65;18.15;;;5.40;86.10;;;;;;5088867;28;20032;-91
2020/12/05 06:23:39;;;;;;;26.17;17.77;;;5.40;85.80;;;;;;5101321;28;20508;-91
2020/12/05 06:26:08;;;;;;;28.60;18.02;;;5.40;85.80;;;;;;5094237;28;20080;-91
2020/12/05 06:28:37;;;;;;;32.55;20.20;;;5.40;85.70;;;;;;5108849;28;20016;-91
2020/12/05 06:31:03;;;;;;;28.88;18.63;;;5.50;85.50;;;;;;5101706;28;20032;-91
2020/12/05 06:33:40;;;;;;;31.98;19.95;;;5.50;85.40;;;;;;5109481;28;20088;-90
2020/12/05 06:36:27;;;;;;;29.40;18.92;;;5.50;85.30;;;;;;5105514;28;20038;-92
2020/12/05 06:39:12;;;;;;;30.70;18.92;;;5.50;85.20;;;;;;5108797;28;20036;-91
2020/12/05 06:41:57;;;;;;;29.73;19.17;;;5.50;85.20;;;;;;5105388;28;20027;-92
2020/12/05 06:44:24;;;;;;;31.02;18.92;;;5.50;85.20;;;;;;5089127;28;20015;-91
2020/12/05 06:46:52;;;;;;;27.42;17.83;;;5.50;85.20;;;;;;5105301;28;20016;-90
2020/12/05 06:49:39;;;;;;;29.92;18.15;;;5.60;85.10;;;;;;5102873;28;20032;-93
2020/12/05 06:52:24;;;;;;;29.15;18.27;;;5.60;84.90;;;;;;5100664;28;20039;-91
2020/12/05 06:54:54;;;;;;;27.45;17.77;;;5.50;84.90;;;;;;5105574;28;20116;-89
2020/12/05 06:57:21;;;;;;;;;;;5.50;84.90;;;;;;5122134;27;20356;-91
2020/12/05 06:59:46;;;;;;;28.15;17.80;;;5.50;84.90;;;;;;5087242;28;20372;-91
2020/12/05 07:02:33;;;;;;;31.15;19.13;;;5.50;84.90;;;;;;5085044;28;20022;-91
2020/12/05 07:05:19;;;;;;;27.63;18.63;;;5.50;84.80;;;;;;5078335;28;20035;-92
2020/12/05 07:07:48;;;;;;;25.65;17.92;;;5.50;85.40;;;;;;5103521;28;20544;-91
2020/12/05 07:10:15;;;;;;;32.67;17.67;;;5.50;85.00;;;;;;5082662;28;20019;-89
2020/12/05 07:12:43;;;;;;;27.33;17.80;;;5.50;84.90;;;;;;5085289;28;20500;-91
2020/12/05 07:15:25;;;;;;;27.23;17.58;;;5.50;84.90;;;;;;5120925;27;20012;-90
2020/12/05 07:17:55;;;;;;;28.77;17.27;;;5.60;84.90;;;;;;5086753;28;20036;-90
2020/12/05 07:20:21;;;;;;;29.70;17.90;;;5.60;84.90;;;;;;5105025;28;20077;-90
2020/12/05 07:22:51;;;;;;;31.00;18.48;;;5.60;84.90;;;;;;5101337;28;20020;-90
2020/12/05 07:25:18;;;;;;;30.85;18.25;;;5.60;84.80;;;;;;5085288;28;20030;-88
2020/12/05 07:27:44;;;;;;;32.58;18.67;;;5.70;84.80;;;;;;5102613;28;20070;-90
2020/12/05 07:30:11;;;;;;;28.75;18.63;;;5.70;84.80;;;;;;5080686;28;20457;-90
2020/12/05 07:32:38;;;;;;;28.42;18.73;;;5.80;84.50;;;;;;5102638;28;20032;-90
2020/12/05 07:35:12;;;;;;;31.35;18.63;;;5.90;84.20;;;;;;5108740;28;20016;-91
2020/12/05 07:37:38;;;;;;;32.75;19.23;;;6.00;84.00;;;;;;5105237;28;20030;-88
2020/12/05 07:40:07;;;;;;;30.27;18.55;;;6.10;83.90;;;;;;5104659;28;20028;-89
2020/12/05 07:42:38;;;;;;;27.83;17.75;;;6.20;83.60;;;;;;5085941;28;20032;-89
2020/12/05 07:45:12;;;;;;;30.83;18.55;;;6.40;83.20;;;;;;5106160;28;20015;-90
2020/12/05 07:47:39;;;;;;;28.83;19.30;;;6.50;82.30;;;;;;5104162;28;20055;-91
2020/12/05 07:50:07;;;;;;;29.90;19.17;;;6.60;81.90;;;;;;5083927;28;20024;-94
2020/12/05 07:52:33;;;;;;;31.48;18.58;;;6.70;82.00;;;;;;5099555;28;20027;-91
2020/12/05 07:55:03;;;;;;;29.05;18.40;;;6.80;81.60;;;;;;5082879;28;20537;-91
2020/12/05 07:57:30;;;;;;;;;;;6.90;80.90;;;;;;5113414;28;20034;-90
2020/12/05 08:00:13;;;;;;;30.83;19.23;;;7.00;81.00;;;;;;5105585;28;20379;-89
2020/12/05 08:03:17;;;;;;;29.15;18.58;;;7.00;81.10;;;;;;5086760;28;20023;-91
2020/12/05 08:05:50;;;;;;;27.52;16.80;;;7.10;80.40;;;;;;5104833;28;20073;-93
2020/12/05 08:08:18;;;;;;;24.98;17.75;;;7.30;79.40;;;;;;5084920;28;20030;-90
2020/12/05 08:10:44;;;;;;;26.02;18.65;;;7.30;79.40;;;;;;5100352;28;20489;-91
2020/12/05 08:13:22;;;;;;;23.17;16.08;;;7.40;79.40;;;;;;5089446;28;20503;-90
2020/12/05 08:16:00;;;;;;;28.55;18.00;;;7.40;79.30;;;;;;5091365;28;20050;-91
2020/12/05 08:18:27;;;;;;;26.30;17.67;;;7.40;79.00;;;;;;5107486;28;20485;-94
2020/12/05 08:20:53;;;;;;;25.75;16.60;;;7.50;78.70;;;;;;5082445;28;20017;-92
2020/12/05 08:23:30;;;;;;;25.08;16.80;;;7.60;78.60;;;;;;5082184;28;20116;-91
2020/12/05 08:26:01;;;;;;;24.58;15.82;;;7.60;78.10;;;;;;5085134;28;20012;-92
2020/12/05 08:28:29;;;;;;;24.83;16.55;;;7.70;77.80;;;;;;5105321;28;20020;-92
2020/12/05 08:30:55;;;;;;;24.60;16.40;;;7.70;78.00;;;;;;5105160;28;20401;-92
2020/12/05 08:33:22;;;;;;;23.17;15.70;;;7.70;77.80;;;;;;5083194;28;20118;-92
2020/12/05 08:35:48;;;;;;;23.00;15.95;;;7.80;77.80;;;;;;5082285;28;20028;-92
2020/12/05 08:38:22;;;;;;;25.48;17.60;;;7.70;77.60;;;;;;5099155;28;20030;-92
2020/12/05 08:40:59;;;;;;;24.25;16.70;;;7.80;77.50;;;;;;5097923;28;20021;-90
2020/12/05 08:43:26;;;;;;;24.05;16.25;;;7.90;77.40;;;;;;5078027;28;20020;-90
2020/12/05 08:45:51;;;;;;;26.85;16.65;;;7.90;77.60;;;;;;5095363;28;20032;-91
2020/12/05 08:48:18;;;;;;;26.88;16.45;;;7.90;77.80;;;;;;5087664;28;20047;-90
2020/12/05 08:50:44;;;;;;;25.25;16.55;;;7.90;77.60;;;;;;5084976;28;20054;-91
2020/12/05 08:53:12;;;;;;;25.95;15.23;;;8.00;77.60;;;;;;5084345;28;20028;-91
2020/12/05 08:55:38;;;;;;;25.17;15.40;;;8.10;77.20;;;;;;5106013;28;20016;-91
2020/12/05 08:58:05;;;;;;;27.00;15.73;;;8.10;77.40;;;;;;5098938;28;20078;-91
2020/12/05 09:00:33;;;;;;;20.80;15.77;;;8.10;77.50;;;;;;5112112;28;20435;-92
2020/12/05 09:02:59;;;;;;;21.15;16.25;;;8.20;76.60;;;;;;5098441;28;20384;-91
2020/12/05 09:05:25;;;;;;;24.90;16.33;;;8.20;76.70;;;;;;5087713;28;20027;-93
2020/12/05 09:07:58;;;;;;;20.52;15.50;;;8.30;76.70;;;;;;5111532;28;20464;-92
2020/12/05 09:10:26;;;;;;;25.45;15.90;;;8.30;76.40;;;;;;5084830;28;20016;-92
2020/12/05 09:12:52;;;;;;;25.13;15.15;;;8.40;76.30;;;;;;5087445;28;20043;-91
2020/12/05 09:15:19;;;;;;;20.65;15.63;;;8.40;76.30;;;;;;5100183;28;20538;-91
2020/12/05 09:17:45;;;;;;;26.00;16.70;;;8.50;76.30;;;;;;5081843;28;20051;-91
2020/12/05 09:20:10;;;;;;;21.33;15.15;;;8.50;75.90;;;;;;5108646;28;20503;-93
2020/12/05 09:22:36;;;;;;;19.02;15.23;;;8.60;75.90;;;;;;5088938;28;20477;-91
2020/12/05 09:25:04;;;;;;;26.33;16.88;;;8.60;75.60;;;;;;5090787;28;20027;-91
2020/12/05 09:27:41;;;;;;;26.90;16.88;;;8.60;75.70;;;;;;5107045;28;20164;-93
2020/12/05 09:30:11;;;;;;;23.70;16.30;;;8.70;75.70;;;;;;5106866;28;20024;-92
2020/12/05 09:32:45;;;;;;;24.13;16.02;;;8.80;75.70;;;;;;5083355;28;20040;-91
2020/12/05 09:35:29;;;;;;;21.85;15.68;;;8.80;75.40;;;;;;5088521;28;20024;-91
2020/12/05 09:37:56;;;;;;;25.50;16.38;;;8.90;75.20;;;;;;5090687;28;20031;-92
2020/12/05 09:40:21;;;;;;;23.48;16.75;;;8.90;75.70;;;;;;5108859;28;20093;-93
2020/12/05 09:42:47;;;;;;;25.58;17.02;;;8.90;75.50;;;;;;5089374;28;20128;-90
2020/12/05 09:45:14;;;;;;;21.77;16.15;;;9.00;75.50;;;;;;5083848;28;20024;-91
2020/12/05 09:47:43;;;;;;;23.75;16.27;;;9.00;75.60;;;;;;5105248;28;20382;-91
2020/12/05 09:50:11;;;;;;;22.63;14.85;;;9.10;75.10;;;;;;5095528;28;20023;-92
2020/12/05 09:52:37;;;;;;;22.45;15.88;;;9.10;75.00;;;;;;5093075;28;20080;-92
2020/12/05 09:55:03;;;;;;;22.13;15.75;;;9.20;75.00;;;;;;5107995;28;20106;-93
2020/12/05 09:57:29;;;;;;;25.70;16.05;;;9.20;75.00;;;;;;5099485;28;20065;-94
2020/12/05 09:59:55;;;;;;;23.02;16.13;;;9.20;74.70;;;;;;5089926;28;20067;-91
2020/12/05 10:02:21;;;;;;;20.95;14.63;;;9.20;74.90;;;;;;5110840;28;20049;-90
2020/12/05 10:04:46;;;;;;;25.15;15.85;;;9.30;75.00;;;;;;5088185;28;20024;-93
2020/12/05 10:07:12;;;;;;;22.73;16.13;;;9.30;74.90;;;;;;5097693;28;20024;-91
2020/12/05 10:09:38;;;;;;;25.17;16.30;;;9.30;75.00;;;;;;5099783;28;20122;-90
2020/12/05 10:12:04;;;;;;;24.02;15.25;;;9.40;74.90;;;;;;5092649;28;20035;-93
2020/12/05 10:14:29;;;;;;;19.70;14.57;;;9.40;74.60;;;;;;5084370;28;20114;-93
2020/12/05 10:16:55;;;;;;;22.42;15.43;;;9.40;74.80;;;;;;5090064;28;20542;-92
2020/12/05 10:19:21;;;;;;;23.25;15.60;;;9.50;74.70;;;;;;5083803;28;20032;-92
2020/12/05 10:21:48;;;;;;;20.75;14.88;;;9.50;74.80;;;;;;5087875;28;20049;-90
2020/12/05 10:24:17;;;;;;;19.58;14.95;;;9.60;74.50;;;;;;5104897;28;20036;-93
2020/12/05 10:26:52;;;;;;;20.25;14.85;;;9.60;74.70;;;;;;5085599;28;20038;-93
2020/12/05 10:29:18;;;;;;;20.35;14.82;;;9.70;74.60;;;;;;5117894;27;20024;-89
2020/12/05 10:31:47;;;;;;;24.10;15.35;;;9.80;74.30;;;;;;5082906;28;20054;-91
2020/12/05 10:34:14;;;;;;;20.58;14.65;;;9.90;74.00;;;;;;5103798;28;20024;-92
2020/12/05 10:36:40;;;;;;;20.88;15.13;;;9.90;74.00;;;;;;5091435;28;20473;-91
2020/12/05 10:39:07;;;;;;;22.70;15.05;;;9.90;73.90;;;;;;5089094;28;20093;-92
2020/12/05 10:41:34;;;;;;;23.02;15.45;;;10.00;73.80;;;;;;5085355;28;20027;-93
2020/12/05 10:44:00;;;;;;;21.67;14.80;;;10.10;73.40;;;;;;5085947;28;20031;-91
2020/12/05 10:46:26;;;;;;;26.40;16.55;;;10.10;73.10;;;;;;5086500;28;20031;-90
2020/12/05 10:48:51;;;;;;;22.63;15.65;;;10.30;73.00;;;;;;5090320;28;20535;-91
2020/12/05 10:51:17;;;;;;;24.75;15.88;;;10.30;72.80;;;;;;5105529;28;20104;-92
2020/12/05 10:53:43;;;;;;;20.02;15.13;;;10.40;72.50;;;;;;5092406;28;20042;-90
2020/12/05 10:56:08;;;;;;;19.60;14.48;;;10.40;72.20;;;;;;5090960;28;20038;-91
2020/12/05 10:58:34;;;;;;;22.27;15.63;;;10.50;72.20;;;;;;5105541;28;20503;-92
2020/12/05 11:01:00;;;;;;;19.60;15.18;;;10.60;71.80;;;;;;5091072;28;20088;-92
2020/12/05 11:03:25;;;;;;;18.42;13.68;;;10.70;72.10;;;;;;5108619;28;20375;-91
2020/12/05 11:05:51;;;;;;;21.50;14.88;;;10.70;71.90;;;;;;5094111;28;20050;-92
2020/12/05 11:08:17;;;;;;;20.65;15.07;;;10.80;71.30;;;;;;5088572;28;20011;-90
2020/12/05 11:10:43;;;;;;;20.52;14.05;;;10.90;71.40;;;;;;5086980;28;20035;-92
2020/12/05 11:13:08;;;;;;;18.30;13.90;;;11.00;71.00;;;;;;5086920;28;20063;-93
2020/12/05 11:15:34;;;;;;;21.67;13.40;;;11.10;70.70;;;;;;5107680;28;20358;-91
2020/12/05 11:18:03;;;;;;;18.60;14.40;;;11.20;70.40;;;;;;5084699;28;20114;-91
2020/12/05 11:20:28;;;;;;;19.52;14.25;;;11.20;70.20;;;;;;5092945;28;20054;-90
2020/12/05 11:22:54;;;;;;;17.95;14.02;;;11.20;70.20;;;;;;5107257;28;20027;-91
2020/12/05 11:25:20;;;;;;;20.33;14.48;;;11.30;69.70;;;;;;5093201;28;20028;-92
2020/12/05 11:27:45;;;;;;;21.85;14.13;;;11.30;69.90;;;;;;5110356;28;20040;-90
2020/12/05 11:30:11;;;;;;;19.15;15.13;;;11.30;70.00;;;;;;5110992;28;20367;-91
2020/12/05 11:32:37;;;;;;;19.15;14.32;;;11.30;70.00;;;;;;5109656;28;20039;-92
2020/12/05 11:35:05;;;;;;;20.40;14.82;;;11.30;69.50;;;;;;5108867;28;20023;-92
2020/12/05 11:37:30;;;;;;;21.45;15.23;;;11.40;70.00;;;;;;5105792;28;20023;-92
2020/12/05 11:39:56;;;;;;;23.45;15.02;;;11.40;69.70;;;;;;5087550;28;20043;-93
2020/12/05 11:42:22;;;;;;;18.75;14.98;;;11.40;69.70;;;;;;5086940;28;20024;-94
2020/12/05 11:44:48;;;;;;;18.00;13.98;;;11.40;69.60;;;;;;5086169;28;20055;-92
2020/12/05 11:47:13;;;;;;;24.35;16.02;;;11.40;69.70;;;;;;5108255;28;20038;-95
2020/12/05 11:49:39;;;;;;;19.75;14.00;;;11.30;70.20;;;;;;5092975;28;20058;-94
2020/12/05 11:52:05;;;;;;;21.15;14.60;;;11.30;70.20;;;;;;5103511;28;20139;-91
2020/12/05 11:54:31;;;;;;;21.70;14.52;;;11.20;70.20;;;;;;5099484;28;20105;-89
2020/12/05 11:56:57;;;;;;;19.10;13.23;;;11.20;70.80;;;;;;5109546;28;20114;-93
2020/12/05 11:59:26;;;;;;;23.15;15.15;;;11.10;70.70;;;;;;5108578;28;20047;-94
2020/12/05 12:01:51;;;;;;;19.23;14.43;;;11.10;71.40;;;;;;5080723;28;20385;-93
2020/12/05 12:04:17;;;;;;;18.20;13.38;;;11.00;71.30;;;;;;5093719;28;20020;-91
2020/12/05 12:06:43;;;;;;;20.13;15.52;;;11.00;71.30;;;;;;5083920;28;20020;-94
2020/12/05 12:09:09;;;;;;;18.90;14.45;;;11.00;71.60;;;;;;5085592;28;20028;-94
2020/12/05 12:11:35;;;;;;;21.88;14.85;;;11.00;71.70;;;;;;5080309;28;20275;-94
2020/12/05 12:14:01;;;;;;;18.48;14.68;;;10.90;71.80;;;;;;5086273;28;20043;-94
2020/12/05 12:16:26;;;;;;;21.25;14.82;;;11.00;72.00;;;;;;5107506;28;20022;-93
2020/12/05 12:18:54;;;;;;;19.95;15.15;;;11.00;72.00;;;;;;5091594;28;20031;-94
2020/12/05 12:21:24;;;;;;;20.70;14.88;;;11.00;71.90;;;;;;5109638;28;20325;-92
2020/12/05 12:23:50;;;;;;;18.30;13.85;;;11.00;72.00;;;;;;5085157;28;20077;-93
2020/12/05 12:26:16;;;;;;;19.85;14.38;;;11.00;72.40;;;;;;5082180;28;20019;-93
2020/12/05 12:28:42;;;;;;;20.73;14.73;;;10.90;72.50;;;;;;5104636;28;20077;-95
2020/12/05 12:31:08;;;;;;;22.98;15.73;;;10.90;72.60;;;;;;5100047;28;20476;-94
2020/12/05 12:33:34;;;;;;;20.60;15.48;;;10.90;72.60;;;;;;5095198;28;20035;-95
2020/12/05 12:36:00;;;;;;;21.17;15.73;;;10.90;72.60;;;;;;5090195;28;20457;-94
2020/12/05 12:38:25;;;;;;;23.35;16.55;;;10.80;72.80;;;;;;5108216;28;20031;-93
2020/12/05 12:40:51;;;;;;;19.88;14.73;;;10.80;72.80;;;;;;5093646;28;20034;-92
2020/12/05 12:43:17;;;;;;;18.63;14.65;;;10.80;72.90;;;;;;5112133;28;20043;-93